Time;durP1;ratioP1;P1;durP2;ratioP2;P2;SDS_P1;SDS_P2;PMS_P1;PMS_P2;Temp;Humidity;BMP_temperature;BMP_pressure;BME280_temperature;BME280_humidity;BME280_pressure;Samples;Min_cycle;Max_cycle;Signal;HPM_P1;HPM_P2
2021/12/25 00:00:45;;;;;;;0.17;0.17;;;;;;;;;;4957068;28;20204;-74
2021/12/25 00:03:16;;;;;;;0.30;0.10;;;;;;;;;;4954308;28;20216;-79
2021/12/25 00:05:48;;;;;;;0.23;0.20;;;;;;;;;;4955638;29;20201;-74
2021/12/25 00:08:17;;;;;;;0.23;0.23;;;;;;;;;;4954636;28;20221;-77
2021/12/25 00:10:47;;;;;;;0.17;0.17;;;;;;;;;;4955543;28;20379;-80
2021/12/25 00:13:19;;;;;;;0.20;0.20;;;;;;;;;;4952563;29;20258;-79
2021/12/25 00:15:48;;;;;;;0.27;0.27;;;;;;;;;;4954954;29;20671;-79
2021/12/25 00:18:19;;;;;;;0.20;0.20;;;;;;;;;;4955246;29;20631;-76
2021/12/25 00:20:49;;;;;;;0.37;0.33;;;;;;;;;;4955889;28;20327;-78
2021/12/25 00:23:22;;;;;;;0.10;0.10;;;;;;;;;;4955970;29;20219;-73
2021/12/25 00:25:56;;;;;;;0.30;0.23;;;;;;;;;;4955215;28;20202;-72
2021/12/25 00:28:49;;;;;;;0.77;0.20;;;;;;;;;;4954948;29;20258;-80
2021/12/25 00:31:44;;;;;;;0.20;0.20;;;;;;;;;;4945948;28;20200;-73
2021/12/25 00:34:15;;;;;;;0.67;0.20;;;;;;;;;;4953066;29;20216;-74
2021/12/25 00:36:44;;;;;;;0.53;0.20;;;;;;;;;;4952057;29;20599;-77
2021/12/25 00:39:14;;;;;;;0.10;0.10;;;;;;;;;;4944072;29;20203;-75
2021/12/25 00:41:43;;;;;;;0.10;0.10;;;;;;;;;;4953378;29;20231;-73
2021/12/25 00:44:14;;;;;;;1.90;0.30;;;;;;;;;;4947088;29;20232;-75
2021/12/25 00:46:44;;;;;;;0.10;0.10;;;;;;;;;;4955038;28;20690;-78
2021/12/25 00:49:13;;;;;;;0.17;0.17;;;;;;;;;;4949802;29;20211;-79
2021/12/25 00:51:46;;;;;;;0.10;0.10;;;;;;;;;;4941374;29;20245;-76
2021/12/25 00:54:20;;;;;;;0.20;0.20;;;;;;;;;;4953802;29;20574;-76
2021/12/25 00:56:51;;;;;;;0.10;0.10;;;;;;;;;;4939872;29;20232;-76
2021/12/25 00:59:24;;;;;;;0.10;0.10;;;;;;;;;;4955783;28;20329;-74
2021/12/25 01:01:58;;;;;;;0.10;0.10;;;;;;;;;;4956080;29;20199;-74
2021/12/25 01:04:28;;;;;;;0.40;0.20;;;;;;;;;;4954663;28;20199;-77
2021/12/25 01:07:00;;;;;;;0.10;0.10;;;;;;;;;;4950659;29;20240;-71
2021/12/25 01:09:31;;;;;;;0.10;0.10;;;;;;;;;;4952585;29;20206;-72
2021/12/25 01:12:01;;;;;;;1.27;0.20;;;;;;;;;;4955182;29;20325;-71
2021/12/25 01:14:37;;;;;;;0.20;0.20;;;;;;;;;;4943402;29;20311;-71
2021/12/25 01:17:28;;;;;;;0.10;0.10;;;;;;;;;;4967387;28;20276;-70
2021/12/25 01:23:27;;;;;;;0.10;0.10;;;;;;;;;;4954356;28;20203;-71
2021/12/25 01:26:09;;;;;;;0.57;0.10;;;;;;;;;;4945728;28;20214;-71
2021/12/25 01:31:37;;;;;;;0.20;0.20;;;;;;;;;;4951197;29;20225;-71
2021/12/25 01:37:17;;;;;;;0.10;0.10;;;;;;;;;;4927911;29;20234;-71
2021/12/25 01:39:56;;;;;;;0.10;0.10;;;;;;;;;;4953196;28;20258;-70
2021/12/25 01:48:04;;;;;;;0.57;0.20;;;;;;;;;;4957646;29;20222;-70
2021/12/25 01:50:34;;;;;;;0.10;0.10;;;;;;;;;;4950922;28;20635;-71
2021/12/25 01:53:03;;;;;;;0.10;0.10;;;;;;;;;;4946516;29;20683;-71
2021/12/25 01:55:33;;;;;;;0.10;0.10;;;;;;;;;;4957663;29;20258;-71
2021/12/25 01:58:03;;;;;;;0.10;0.10;;;;;;;;;;4957911;29;20238;-71
2021/12/25 02:00:34;;;;;;;0.20;0.20;;;;;;;;;;4957895;28;20207;-71
2021/12/25 02:03:07;;;;;;;1.43;0.10;;;;;;;;;;4958445;28;20210;-71
2021/12/25 02:05:37;;;;;;;0.10;0.10;;;;;;;;;;4956502;29;20601;-71
2021/12/25 02:08:22;;;;;;;0.10;0.10;;;;;;;;;;4955988;28;20620;-70
2021/12/25 02:10:53;;;;;;;0.10;0.10;;;;;;;;;;4957316;28;20264;-71
2021/12/25 02:13:23;;;;;;;0.10;0.10;;;;;;;;;;4957893;29;20330;-71
2021/12/25 02:15:54;;;;;;;0.10;0.10;;;;;;;;;;4946164;29;20203;-71
2021/12/25 02:18:36;;;;;;;0.10;0.10;;;;;;;;;;4953818;29;20231;-71
2021/12/25 02:21:11;;;;;;;0.10;0.10;;;;;;;;;;4956072;29;20198;-71
2021/12/25 02:23:42;;;;;;;0.20;0.20;;;;;;;;;;4957285;29;20198;-71
2021/12/25 02:26:11;;;;;;;0.10;0.10;;;;;;;;;;4956662;29;20202;-71
2021/12/25 02:28:43;;;;;;;0.10;0.10;;;;;;;;;;4956185;29;20219;-70
2021/12/25 02:31:15;;;;;;;0.10;0.10;;;;;;;;;;4956385;28;20270;-70
2021/12/25 02:33:45;;;;;;;0.10;0.10;;;;;;;;;;4950019;28;20226;-70
2021/12/25 02:36:18;;;;;;;0.10;0.10;;;;;;;;;;4957011;29;20298;-70
2021/12/25 02:38:48;;;;;;;0.10;0.10;;;;;;;;;;4954917;29;20214;-70
2021/12/25 02:41:19;;;;;;;0.10;0.10;;;;;;;;;;4949734;29;20199;-71
2021/12/25 02:43:50;;;;;;;0.10;0.10;;;;;;;;;;4952703;29;20203;-71
2021/12/25 02:46:24;;;;;;;0.00;0.00;;;;;;;;;;4957540;29;20569;-70
2021/12/25 02:48:57;;;;;;;0.10;0.10;;;;;;;;;;4956898;29;20277;-71
2021/12/25 02:51:28;;;;;;;0.10;0.10;;;;;;;;;;4955517;29;20210;-71
2021/12/25 02:54:01;;;;;;;0.10;0.10;;;;;;;;;;4954802;28;20249;-70
2021/12/25 02:56:33;;;;;;;0.10;0.10;;;;;;;;;;4955646;28;20202;-70
2021/12/25 02:59:03;;;;;;;0.10;0.10;;;;;;;;;;4957228;28;20244;-70
2021/12/25 03:01:48;;;;;;;0.10;0.10;;;;;;;;;;4956294;28;20207;-70
2021/12/25 03:04:17;;;;;;;0.10;0.10;;;;;;;;;;4956718;29;20290;-70
2021/12/25 03:06:49;;;;;;;0.10;0.10;;;;;;;;;;4955083;29;20273;-70
2021/12/25 03:09:19;;;;;;;0.17;0.10;;;;;;;;;;4955669;29;20225;-70
2021/12/25 03:11:51;;;;;;;0.20;0.20;;;;;;;;;;4955503;28;20214;-70
2021/12/25 03:14:33;;;;;;;0.10;0.10;;;;;;;;;;4956215;29;20628;-70
2021/12/25 03:17:02;;;;;;;0.10;0.10;;;;;;;;;;4955089;29;20218;-70
2021/12/25 03:19:33;;;;;;;0.10;0.10;;;;;;;;;;4954274;29;20218;-71
2021/12/25 03:22:05;;;;;;;0.10;0.10;;;;;;;;;;4956055;28;20211;-70
2021/12/25 03:24:37;;;;;;;0.10;0.10;;;;;;;;;;4956079;29;20198;-70
2021/12/25 03:27:07;;;;;;;0.10;0.10;;;;;;;;;;4945847;29;20519;-70
2021/12/25 03:29:40;;;;;;;0.10;0.10;;;;;;;;;;4956374;29;20210;-70
2021/12/25 03:32:11;;;;;;;0.10;0.10;;;;;;;;;;4955657;28;20203;-70
2021/12/25 03:34:41;;;;;;;0.10;0.10;;;;;;;;;;4956867;28;20221;-71
2021/12/25 03:37:11;;;;;;;0.10;0.10;;;;;;;;;;4954113;29;20237;-70
2021/12/25 03:39:41;;;;;;;0.10;0.10;;;;;;;;;;4955389;29;20203;-71
2021/12/25 03:42:11;;;;;;;0.10;0.10;;;;;;;;;;4953796;29;20291;-70
2021/12/25 03:44:41;;;;;;;0.10;0.10;;;;;;;;;;4956789;28;20307;-70
2021/12/25 03:47:23;;;;;;;0.10;0.10;;;;;;;;;;4948034;29;20702;-70
2021/12/25 03:58:20;;;;;;;0.10;0.10;;;;;;;;;;4955826;29;20702;-72
2021/12/25 04:00:51;;;;;;;0.17;0.10;;;;;;;;;;4955893;29;20194;-70
2021/12/25 04:03:38;;;;;;;0.10;0.10;;;;;;;;;;4955673;29;20226;-70
2021/12/25 04:06:10;;;;;;;0.10;0.10;;;;;;;;;;4954668;29;20319;-70
2021/12/25 04:08:45;;;;;;;0.17;0.17;;;;;;;;;;4953502;29;20217;-69
2021/12/25 04:11:26;;;;;;;0.10;0.10;;;;;;;;;;4955383;29;20665;-69
2021/12/25 04:13:56;;;;;;;0.10;0.10;;;;;;;;;;4948421;29;20716;-69
2021/12/25 04:16:27;;;;;;;0.10;0.10;;;;;;;;;;4955726;29;20214;-70
2021/12/25 04:18:57;;;;;;;0.10;0.10;;;;;;;;;;4945032;29;20246;-70
2021/12/25 04:21:28;;;;;;;0.10;0.10;;;;;;;;;;4955468;29;20202;-70
2021/12/25 04:24:00;;;;;;;0.10;0.10;;;;;;;;;;4953627;29;20249;-70
2021/12/25 04:26:30;;;;;;;0.10;0.10;;;;;;;;;;4955073;28;20569;-71
2021/12/25 04:29:15;;;;;;;0.13;0.13;;;;;;;;;;4953551;29;20209;-70
2021/12/25 04:32:08;;;;;;;0.10;0.10;;;;;;;;;;4952046;29;20215;-70
2021/12/25 04:47:51;;;;;;;0.10;0.10;;;;;;;;;;4954554;29;20205;-70
2021/12/25 05:02:58;;;;;;;0.10;0.10;;;;;;;;;;4950794;29;20238;-70
2021/12/25 05:05:30;;;;;;;0.10;0.10;;;;;;;;;;4954607;28;20289;-70
2021/12/25 05:08:03;;;;;;;0.10;0.10;;;;;;;;;;4953619;29;20593;-70
2021/12/25 05:10:33;;;;;;;0.10;0.10;;;;;;;;;;4954083;28;20650;-70
2021/12/25 05:13:04;;;;;;;0.10;0.10;;;;;;;;;;4954791;29;20242;-70
2021/12/25 05:15:33;;;;;;;0.10;0.10;;;;;;;;;;4951134;28;20313;-71
2021/12/25 05:18:05;;;;;;;0.10;0.10;;;;;;;;;;4949837;29;20234;-70
2021/12/25 05:20:35;;;;;;;0.20;0.20;;;;;;;;;;4953800;29;20262;-70
2021/12/25 05:23:04;;;;;;;0.10;0.10;;;;;;;;;;4953967;29;20223;-70
2021/12/25 05:25:35;;;;;;;0.10;0.10;;;;;;;;;;4953741;28;20206;-70
2021/12/25 05:28:09;;;;;;;0.10;0.10;;;;;;;;;;4951412;28;20246;-70
2021/12/25 05:30:40;;;;;;;0.13;0.13;;;;;;;;;;4954382;28;20213;-70
2021/12/25 05:33:10;;;;;;;0.10;0.10;;;;;;;;;;4954020;29;20284;-70
2021/12/25 05:35:43;;;;;;;0.10;0.10;;;;;;;;;;4954298;28;20223;-69
2021/12/25 05:38:14;;;;;;;0.10;0.10;;;;;;;;;;4953158;29;20312;-71
2021/12/25 05:40:43;;;;;;;0.27;0.20;;;;;;;;;;4954012;28;20207;-70
2021/12/25 05:43:17;;;;;;;0.10;0.10;;;;;;;;;;4954856;29;20209;-70
2021/12/25 05:45:47;;;;;;;0.10;0.10;;;;;;;;;;4953869;28;20237;-70
2021/12/25 05:48:18;;;;;;;0.10;0.10;;;;;;;;;;4943582;29;20268;-70
2021/12/25 05:50:48;;;;;;;0.10;0.10;;;;;;;;;;4952564;28;20220;-70
2021/12/25 05:53:19;;;;;;;0.10;0.10;;;;;;;;;;4953431;29;20206;-70
2021/12/25 05:58:33;;;;;;;0.10;0.10;;;;;;;;;;4951556;29;20233;-72
2021/12/25 06:01:05;;;;;;;0.10;0.10;;;;;;;;;;4953366;28;20203;-72
2021/12/25 06:03:39;;;;;;;0.10;0.10;;;;;;;;;;4936901;28;20201;-72
2021/12/25 06:06:08;;;;;;;0.10;0.10;;;;;;;;;;4936645;29;20211;-72
2021/12/25 06:08:39;;;;;;;0.10;0.10;;;;;;;;;;4939832;28;20290;-73
2021/12/25 06:11:10;;;;;;;0.10;0.10;;;;;;;;;;4938852;29;20297;-71
2021/12/25 06:13:48;;;;;;;0.10;0.10;;;;;;;;;;4935091;28;20670;-72
2021/12/25 06:16:18;;;;;;;0.10;0.10;;;;;;;;;;4948022;29;20235;-74
2021/12/25 06:18:49;;;;;;;0.10;0.10;;;;;;;;;;4952639;28;20247;-73
2021/12/25 06:21:19;;;;;;;0.10;0.10;;;;;;;;;;4952714;28;20247;-72
2021/12/25 06:23:49;;;;;;;0.10;0.10;;;;;;;;;;4935178;29;20234;-73
2021/12/25 06:26:35;;;;;;;0.10;0.10;;;;;;;;;;4947752;29;20221;-78
2021/12/25 06:29:07;;;;;;;0.10;0.10;;;;;;;;;;4953755;29;20217;-75
2021/12/25 06:31:37;;;;;;;0.10;0.10;;;;;;;;;;4941050;28;20287;-72
2021/12/25 06:34:07;;;;;;;0.10;0.10;;;;;;;;;;4939042;29;20222;-75
2021/12/25 06:36:39;;;;;;;0.10;0.10;;;;;;;;;;4950227;28;20222;-72
2021/12/25 06:39:12;;;;;;;0.20;0.20;;;;;;;;;;4957165;28;20209;-71
2021/12/25 06:41:45;;;;;;;0.10;0.10;;;;;;;;;;4938699;29;20674;-73
2021/12/25 06:44:24;;;;;;;0.10;0.10;;;;;;;;;;4951840;29;20211;-73
2021/12/25 06:46:54;;;;;;;0.10;0.10;;;;;;;;;;4939083;29;20223;-73
2021/12/25 06:49:24;;;;;;;0.10;0.10;;;;;;;;;;4938588;29;20267;-72
2021/12/25 06:51:53;;;;;;;0.10;0.10;;;;;;;;;;4938127;29;20545;-74
2021/12/25 06:54:24;;;;;;;0.10;0.10;;;;;;;;;;4955261;28;20215;-74
2021/12/25 06:56:55;;;;;;;0.10;0.10;;;;;;;;;;4950611;29;20234;-72
2021/12/25 06:59:28;;;;;;;0.10;0.10;;;;;;;;;;4939089;29;20686;-77
2021/12/25 07:01:57;;;;;;;0.10;0.10;;;;;;;;;;4938653;28;20615;-76
2021/12/25 07:04:28;;;;;;;0.10;0.10;;;;;;;;;;4940232;29;20707;-71
2021/12/25 07:06:57;;;;;;;0.17;0.17;;;;;;;;;;4944527;29;20799;-74
2021/12/25 07:09:28;;;;;;;0.10;0.10;;;;;;;;;;4956350;28;20202;-75
2021/12/25 07:11:58;;;;;;;0.10;0.10;;;;;;;;;;4948564;28;20241;-74
2021/12/25 07:14:29;;;;;;;0.10;0.10;;;;;;;;;;4954485;28;20231;-74
2021/12/25 07:16:59;;;;;;;0.10;0.10;;;;;;;;;;4951677;29;20238;-72
2021/12/25 07:19:29;;;;;;;0.10;0.10;;;;;;;;;;4951625;28;20293;-71
2021/12/25 07:21:59;;;;;;;0.10;0.10;;;;;;;;;;4952897;28;20214;-72
2021/12/25 07:24:28;;;;;;;0.10;0.10;;;;;;;;;;4954838;28;20217;-73
2021/12/25 07:26:58;;;;;;;0.10;0.10;;;;;;;;;;4938409;28;20226;-74
2021/12/25 07:29:29;;;;;;;0.10;0.10;;;;;;;;;;4938171;29;20290;-73
2021/12/25 07:31:58;;;;;;;0.10;0.10;;;;;;;;;;4937663;29;20211;-75
2021/12/25 07:34:27;;;;;;;0.10;0.10;;;;;;;;;;4938481;29;20296;-76
2021/12/25 07:36:57;;;;;;;0.10;0.10;;;;;;;;;;4943021;29;20225;-75
2021/12/25 07:39:27;;;;;;;0.10;0.10;;;;;;;;;;4949969;28;20207;-73
2021/12/25 07:41:56;;;;;;;0.63;0.10;;;;;;;;;;4942909;28;20208;-75
2021/12/25 07:44:30;;;;;;;0.10;0.10;;;;;;;;;;4940466;29;20216;-77
2021/12/25 07:47:02;;;;;;;0.10;0.10;;;;;;;;;;4937340;29;20227;-74
2021/12/25 07:49:32;;;;;;;0.10;0.10;;;;;;;;;;4944313;29;20291;-73
2021/12/25 07:52:01;;;;;;;0.10;0.10;;;;;;;;;;4946455;29;20245;-75
2021/12/25 07:54:33;;;;;;;0.10;0.10;;;;;;;;;;4939780;29;20241;-78
2021/12/25 07:57:03;;;;;;;0.10;0.10;;;;;;;;;;4961585;28;20229;-75
2021/12/25 07:59:34;;;;;;;0.10;0.10;;;;;;;;;;4955897;28;20196;-70
2021/12/25 08:02:04;;;;;;;0.10;0.10;;;;;;;;;;4956691;28;20241;-76
2021/12/25 08:04:33;;;;;;;0.10;0.10;;;;;;;;;;4945643;28;20351;-71
2021/12/25 08:07:03;;;;;;;0.10;0.10;;;;;;;;;;4954570;28;20310;-74
2021/12/25 08:09:35;;;;;;;0.10;0.10;;;;;;;;;;4950867;28;20211;-76
2021/12/25 08:12:08;;;;;;;0.10;0.10;;;;;;;;;;4943118;28;20253;-75
2021/12/25 08:14:40;;;;;;;0.10;0.10;;;;;;;;;;4939123;29;20294;-76
2021/12/25 08:17:10;;;;;;;0.10;0.10;;;;;;;;;;4941902;28;20254;-72
2021/12/25 08:19:40;;;;;;;0.10;0.10;;;;;;;;;;4944632;29;20560;-73
2021/12/25 08:22:10;;;;;;;0.10;0.10;;;;;;;;;;4936172;29;20262;-73
2021/12/25 08:24:39;;;;;;;0.10;0.10;;;;;;;;;;4947082;28;20642;-73
2021/12/25 08:27:09;;;;;;;0.00;0.00;;;;;;;;;;4952812;29;20220;-74
2021/12/25 08:29:40;;;;;;;0.10;0.10;;;;;;;;;;4949494;28;20210;-76
2021/12/25 08:32:11;;;;;;;0.10;0.10;;;;;;;;;;4950198;28;20289;-79
2021/12/25 08:34:43;;;;;;;0.10;0.10;;;;;;;;;;4946035;29;20253;-72
2021/12/25 08:37:14;;;;;;;0.10;0.10;;;;;;;;;;4949385;28;20281;-73
2021/12/25 08:39:44;;;;;;;0.10;0.10;;;;;;;;;;4947723;28;20577;-80
2021/12/25 08:42:15;;;;;;;0.00;0.00;;;;;;;;;;4945755;29;20238;-77
2021/12/25 08:45:04;;;;;;;0.10;0.10;;;;;;;;;;4952786;28;20225;-71
2021/12/25 08:47:35;;;;;;;0.10;0.10;;;;;;;;;;4937056;29;20691;-79
2021/12/25 08:50:07;;;;;;;0.00;0.00;;;;;;;;;;4936813;29;20202;-73
2021/12/25 08:52:37;;;;;;;0.10;0.10;;;;;;;;;;4945320;28;20262;-72
2021/12/25 08:55:10;;;;;;;0.10;0.10;;;;;;;;;;4953423;29;20265;-71
2021/12/25 08:57:40;;;;;;;0.10;0.10;;;;;;;;;;4935663;28;20242;-74
2021/12/25 09:00:13;;;;;;;0.10;0.10;;;;;;;;;;4947542;29;20638;-78
2021/12/25 09:02:43;;;;;;;0.00;0.00;;;;;;;;;;4942930;28;20572;-73
2021/12/25 09:05:13;;;;;;;0.10;0.10;;;;;;;;;;4936448;29;20211;-73
2021/12/25 09:07:42;;;;;;;0.10;0.10;;;;;;;;;;4935688;29;20258;-72
2021/12/25 09:10:15;;;;;;;0.10;0.10;;;;;;;;;;4945660;29;20221;-75
2021/12/25 09:12:49;;;;;;;0.10;0.10;;;;;;;;;;4951324;29;20210;-73
2021/12/25 09:15:24;;;;;;;0.10;0.10;;;;;;;;;;4944796;28;20246;-73
2021/12/25 09:17:56;;;;;;;0.00;0.00;;;;;;;;;;4938624;28;20237;-75
2021/12/25 09:20:26;;;;;;;0.10;0.10;;;;;;;;;;4950706;29;20373;-73
2021/12/25 09:22:57;;;;;;;0.00;0.00;;;;;;;;;;4947368;28;20242;-73
2021/12/25 09:25:27;;;;;;;0.00;0.00;;;;;;;;;;4950223;29;20214;-76
2021/12/25 09:27:57;;;;;;;0.10;0.10;;;;;;;;;;4954766;28;20219;-73
2021/12/25 09:30:28;;;;;;;0.10;0.10;;;;;;;;;;4951229;28;20285;-72
2021/12/25 09:33:01;;;;;;;0.10;0.10;;;;;;;;;;4952715;28;20211;-72
2021/12/25 09:35:31;;;;;;;0.10;0.10;;;;;;;;;;4944118;28;20207;-70
2021/12/25 09:38:05;;;;;;;0.10;0.10;;;;;;;;;;4944695;28;20231;-71
2021/12/25 09:40:36;;;;;;;0.10;0.10;;;;;;;;;;4948046;28;20204;-70
2021/12/25 09:43:06;;;;;;;0.10;0.10;;;;;;;;;;4945158;28;20583;-70
2021/12/25 09:45:37;;;;;;;0.10;0.10;;;;;;;;;;4953667;28;20245;-71
2021/12/25 09:48:07;;;;;;;0.10;0.10;;;;;;;;;;4935476;29;20223;-70
2021/12/25 09:50:36;;;;;;;0.10;0.10;;;;;;;;;;4944222;28;20201;-71
2021/12/25 09:53:12;;;;;;;0.10;0.10;;;;;;;;;;4947240;28;20214;-71
2021/12/25 09:55:45;;;;;;;0.10;0.10;;;;;;;;;;4945896;28;20248;-71
2021/12/25 09:58:31;;;;;;;0.00;0.00;;;;;;;;;;4948167;29;20278;-70
2021/12/25 10:01:02;;;;;;;0.00;0.00;;;;;;;;;;4943398;28;20648;-70
2021/12/25 10:03:42;;;;;;;0.00;0.00;;;;;;;;;;4940057;28;20188;-71
2021/12/25 10:06:28;;;;;;;0.00;0.00;;;;;;;;;;4943744;28;20668;-70
2021/12/25 10:09:01;;;;;;;0.00;0.00;;;;;;;;;;4938692;28;20727;-71
2021/12/25 10:11:37;;;;;;;0.00;0.00;;;;;;;;;;4941241;29;20209;-71
2021/12/25 10:14:06;;;;;;;0.00;0.00;;;;;;;;;;4947714;28;20199;-71
2021/12/25 10:16:36;;;;;;;0.00;0.00;;;;;;;;;;4941854;28;20230;-71
2021/12/25 10:19:16;;;;;;;0.00;0.00;;;;;;;;;;4938817;29;20230;-71
2021/12/25 10:21:45;;;;;;;0.00;0.00;;;;;;;;;;4940869;29;20201;-71
2021/12/25 10:24:17;;;;;;;0.00;0.00;;;;;;;;;;4956164;28;20221;-71
2021/12/25 10:26:47;;;;;;;0.00;0.00;;;;;;;;;;4948777;28;20232;-71
2021/12/25 10:29:17;;;;;;;0.00;0.00;;;;;;;;;;4945791;28;20206;-71
2021/12/25 10:31:47;;;;;;;0.00;0.00;;;;;;;;;;4950300;29;20207;-71
2021/12/25 10:34:16;;;;;;;0.00;0.00;;;;;;;;;;4944701;28;20739;-71
2021/12/25 10:36:44;;;;;;;0.00;0.00;;;;;;;;;;4942641;29;20220;-71
2021/12/25 10:39:15;;;;;;;0.00;0.00;;;;;;;;;;4939299;29;20231;-71
2021/12/25 10:41:52;;;;;;;0.00;0.00;;;;;;;;;;4949429;29;20203;-71
2021/12/25 10:44:21;;;;;;;0.00;0.00;;;;;;;;;;4957853;28;20201;-71
2021/12/25 10:46:54;;;;;;;0.00;0.00;;;;;;;;;;4949589;29;20247;-71
2021/12/25 10:49:23;;;;;;;0.00;0.00;;;;;;;;;;4945703;28;20212;-71
2021/12/25 10:51:52;;;;;;;0.00;0.00;;;;;;;;;;4946541;29;20269;-71
2021/12/25 10:54:21;;;;;;;0.00;0.00;;;;;;;;;;4944435;28;20207;-71
2021/12/25 10:56:50;;;;;;;0.00;0.00;;;;;;;;;;4946719;28;20243;-71
2021/12/25 10:59:19;;;;;;;0.00;0.00;;;;;;;;;;4941800;28;20644;-71
2021/12/25 11:01:49;;;;;;;0.10;0.10;;;;;;;;;;4947291;29;20206;-71
2021/12/25 11:04:29;;;;;;;0.00;0.00;;;;;;;;;;4950893;29;20204;-71
2021/12/25 11:06:59;;;;;;;0.10;0.10;;;;;;;;;;4954049;29;20226;-71
2021/12/25 11:09:27;;;;;;;0.00;0.00;;;;;;;;;;4957784;28;20603;-71
2021/12/25 11:12:14;;;;;;;0.00;0.00;;;;;;;;;;4956461;28;20207;-71
2021/12/25 11:14:43;;;;;;;0.00;0.00;;;;;;;;;;4948085;28;20196;-71
2021/12/25 11:17:25;;;;;;;0.00;0.00;;;;;;;;;;4951825;29;20220;-71
2021/12/25 11:20:01;;;;;;;0.00;0.00;;;;;;;;;;4937975;29;20561;-71
2021/12/25 11:22:45;;;;;;;0.00;0.00;;;;;;;;;;4940044;28;20208;-71
2021/12/25 11:25:14;;;;;;;0.00;0.00;;;;;;;;;;4605470;28;10000002;-71
2021/12/25 11:27:42;;;;;;;0.00;0.00;;;;;;;;;;4945897;29;20242;-71
2021/12/25 11:30:12;;;;;;;0.00;0.00;;;;;;;;;;4944293;28;20200;-71
2021/12/25 11:32:40;;;;;;;0.00;0.00;;;;;;;;;;4937202;29;20204;-71
2021/12/25 11:35:11;;;;;;;0.00;0.00;;;;;;;;;;4944861;29;20210;-71
2021/12/25 11:37:40;;;;;;;0.00;0.00;;;;;;;;;;4940715;28;20285;-71
2021/12/25 11:40:09;;;;;;;0.00;0.00;;;;;;;;;;4935893;29;20208;-71
2021/12/25 11:42:41;;;;;;;0.00;0.00;;;;;;;;;;4939961;29;20295;-71
2021/12/25 11:45:13;;;;;;;0.00;0.00;;;;;;;;;;4953532;28;20208;-71
2021/12/25 11:47:43;;;;;;;0.00;0.00;;;;;;;;;;4953422;28;20224;-71
2021/12/25 11:50:14;;;;;;;0.00;0.00;;;;;;;;;;4953631;28;20204;-71
2021/12/25 11:52:47;;;;;;;0.00;0.00;;;;;;;;;;4948619;29;20212;-71
2021/12/25 11:55:35;;;;;;;0.00;0.00;;;;;;;;;;4942804;29;20284;-70
2021/12/25 11:58:17;;;;;;;0.00;0.00;;;;;;;;;;4941681;29;20230;-71
2021/12/25 12:00:47;;;;;;;0.00;0.00;;;;;;;;;;4949640;29;20678;-71
2021/12/25 12:03:30;;;;;;;0.00;0.00;;;;;;;;;;4949918;28;20662;-71
2021/12/25 12:06:00;;;;;;;0.00;0.00;;;;;;;;;;4949369;28;20214;-70
2021/12/25 12:08:29;;;;;;;0.00;0.00;;;;;;;;;;4939808;28;20238;-71
2021/12/25 12:10:59;;;;;;;0.00;0.00;;;;;;;;;;4938951;28;20269;-71
2021/12/25 12:13:29;;;;;;;0.10;0.10;;;;;;;;;;4941703;28;20290;-71
2021/12/25 12:15:58;;;;;;;0.00;0.00;;;;;;;;;;4952382;28;20214;-71
2021/12/25 12:18:35;;;;;;;0.03;0.03;;;;;;;;;;4943678;28;20231;-71
2021/12/25 12:21:09;;;;;;;0.10;0.10;;;;;;;;;;4956202;28;20609;-71
2021/12/25 12:23:53;;;;;;;0.00;0.00;;;;;;;;;;4952069;28;20203;-71
2021/12/25 12:26:41;;;;;;;0.07;0.07;;;;;;;;;;4939965;29;20258;-70
2021/12/25 12:29:09;;;;;;;0.10;0.10;;;;;;;;;;4950325;28;20237;-71
2021/12/25 12:31:39;;;;;;;0.10;0.10;;;;;;;;;;4953095;28;20573;-71
2021/12/25 12:34:26;;;;;;;0.10;0.10;;;;;;;;;;4948095;28;20211;-71
2021/12/25 12:37:16;;;;;;;0.10;0.10;;;;;;;;;;4951460;28;20701;-71
2021/12/25 12:40:07;;;;;;;0.00;0.00;;;;;;;;;;4946515;28;20223;-71
2021/12/25 12:42:50;;;;;;;0.00;0.00;;;;;;;;;;4938892;29;20236;-71
2021/12/25 12:45:20;;;;;;;0.00;0.00;;;;;;;;;;4947829;28;20596;-71
2021/12/25 12:48:04;;;;;;;0.00;0.00;;;;;;;;;;4949888;28;20341;-71
2021/12/25 12:50:33;;;;;;;0.00;0.00;;;;;;;;;;4954044;28;20195;-71
2021/12/25 12:53:02;;;;;;;0.00;0.00;;;;;;;;;;4945716;28;20261;-71
2021/12/25 12:55:34;;;;;;;0.00;0.00;;;;;;;;;;4947774;29;20207;-71
2021/12/25 12:58:09;;;;;;;0.00;0.00;;;;;;;;;;4949686;28;20230;-72
2021/12/25 13:00:38;;;;;;;0.00;0.00;;;;;;;;;;4950831;29;20223;-71
2021/12/25 13:03:07;;;;;;;0.10;0.10;;;;;;;;;;4951149;28;20267;-71
2021/12/25 13:05:37;;;;;;;0.00;0.00;;;;;;;;;;4946791;29;20300;-72
2021/12/25 13:08:16;;;;;;;0.00;0.00;;;;;;;;;;4952550;28;20319;-71
2021/12/25 13:10:50;;;;;;;0.00;0.00;;;;;;;;;;4949557;29;20195;-72
2021/12/25 13:13:21;;;;;;;0.00;0.00;;;;;;;;;;4943581;29;20266;-71
2021/12/25 13:15:51;;;;;;;0.00;0.00;;;;;;;;;;4939108;29;20239;-71
2021/12/25 13:18:27;;;;;;;0.00;0.00;;;;;;;;;;4947809;29;20281;-72
2021/12/25 13:20:55;;;;;;;0.00;0.00;;;;;;;;;;4944136;28;20265;-71
2021/12/25 13:23:25;;;;;;;0.10;0.10;;;;;;;;;;4943182;28;20215;-72
2021/12/25 13:25:57;;;;;;;0.10;0.10;;;;;;;;;;4940964;28;20206;-73
2021/12/25 13:28:27;;;;;;;0.00;0.00;;;;;;;;;;4951009;28;20225;-71
2021/12/25 13:30:56;;;;;;;0.10;0.10;;;;;;;;;;4947817;28;21888;-71
2021/12/25 13:33:26;;;;;;;0.00;0.00;;;;;;;;;;4942875;29;20206;-71
2021/12/25 13:36:01;;;;;;;0.10;0.10;;;;;;;;;;4952757;28;20212;-72
2021/12/25 13:38:30;;;;;;;0.10;0.10;;;;;;;;;;4952207;28;20269;-72
2021/12/25 13:41:00;;;;;;;0.10;0.10;;;;;;;;;;4954629;28;20750;-73
2021/12/25 13:43:29;;;;;;;0.07;0.07;;;;;;;;;;4951363;29;20201;-71
2021/12/25 13:45:58;;;;;;;0.10;0.10;;;;;;;;;;4946783;28;20567;-71
2021/12/25 13:48:26;;;;;;;0.00;0.00;;;;;;;;;;4956382;29;20224;-71
2021/12/25 13:51:01;;;;;;;0.10;0.10;;;;;;;;;;4957059;28;20212;-72
2021/12/25 13:53:32;;;;;;;0.10;0.10;;;;;;;;;;4948821;29;20219;-72
2021/12/25 13:56:16;;;;;;;0.10;0.10;;;;;;;;;;4942462;29;20207;-71
2021/12/25 13:58:45;;;;;;;0.10;0.10;;;;;;;;;;4943921;29;20200;-72
2021/12/25 14:01:16;;;;;;;0.10;0.10;;;;;;;;;;4949476;29;20595;-71
2021/12/25 14:03:45;;;;;;;0.10;0.10;;;;;;;;;;4945782;29;20239;-71
2021/12/25 14:06:13;;;;;;;0.10;0.10;;;;;;;;;;4948354;29;20205;-71
2021/12/25 14:08:42;;;;;;;0.10;0.10;;;;;;;;;;4957502;28;20250;-72
2021/12/25 14:11:10;;;;;;;0.10;0.10;;;;;;;;;;4946165;28;20263;-73
2021/12/25 14:13:40;;;;;;;0.10;0.10;;;;;;;;;;4954839;29;20201;-72
2021/12/25 14:16:10;;;;;;;0.00;0.00;;;;;;;;;;4951308;28;20231;-71
2021/12/25 14:18:39;;;;;;;0.10;0.10;;;;;;;;;;4942541;29;20684;-72
2021/12/25 14:21:15;;;;;;;0.10;0.10;;;;;;;;;;4606809;28;10000359;-73
2021/12/25 14:23:44;;;;;;;0.10;0.10;;;;;;;;;;4951383;28;20260;-71
2021/12/25 14:26:19;;;;;;;0.10;0.10;;;;;;;;;;4950149;28;20204;-73
2021/12/25 14:28:48;;;;;;;0.10;0.10;;;;;;;;;;4954762;28;20265;-70
2021/12/25 14:31:18;;;;;;;0.10;0.10;;;;;;;;;;4945799;28;20290;-72
2021/12/25 14:33:55;;;;;;;0.10;0.10;;;;;;;;;;4950741;28;20826;-71
2021/12/25 14:36:24;;;;;;;0.10;0.10;;;;;;;;;;4943976;28;20203;-71
2021/12/25 14:38:52;;;;;;;0.10;0.10;;;;;;;;;;4946413;29;20279;-71
2021/12/25 14:41:26;;;;;;;0.10;0.10;;;;;;;;;;4950838;28;20291;-71
2021/12/25 14:43:54;;;;;;;0.10;0.10;;;;;;;;;;4949374;29;20723;-71
2021/12/25 14:46:25;;;;;;;0.10;0.10;;;;;;;;;;4953901;28;20558;-71
2021/12/25 14:48:57;;;;;;;0.10;0.10;;;;;;;;;;4951233;28;20215;-71
2021/12/25 14:51:26;;;;;;;0.10;0.10;;;;;;;;;;4944673;28;20208;-71
2021/12/25 14:53:55;;;;;;;0.10;0.10;;;;;;;;;;4943886;29;20283;-72
2021/12/25 14:56:25;;;;;;;0.10;0.10;;;;;;;;;;4950114;29;20862;-71
2021/12/25 14:59:01;;;;;;;0.10;0.10;;;;;;;;;;4945827;29;20202;-71
2021/12/25 15:01:32;;;;;;;0.10;0.10;;;;;;;;;;4946439;28;20219;-71
2021/12/25 15:04:02;;;;;;;0.10;0.10;;;;;;;;;;4949112;28;20302;-71
2021/12/25 15:06:31;;;;;;;0.10;0.10;;;;;;;;;;4945363;29;20691;-71
2021/12/25 15:09:01;;;;;;;0.10;0.10;;;;;;;;;;4954723;28;20213;-71
2021/12/25 15:11:32;;;;;;;0.07;0.07;;;;;;;;;;4944389;28;20254;-71
2021/12/25 15:14:02;;;;;;;0.10;0.10;;;;;;;;;;4935988;29;20210;-71
2021/12/25 15:16:36;;;;;;;0.10;0.10;;;;;;;;;;4936850;29;20206;-71
2021/12/25 15:19:05;;;;;;;0.10;0.10;;;;;;;;;;4943631;28;20293;-71
2021/12/25 15:21:42;;;;;;;0.10;0.10;;;;;;;;;;4947466;28;20604;-71
2021/12/25 15:24:13;;;;;;;0.10;0.10;;;;;;;;;;4951777;28;20203;-71
2021/12/25 15:26:43;;;;;;;0.10;0.10;;;;;;;;;;4944198;28;20225;-72
2021/12/25 15:29:12;;;;;;;0.10;0.10;;;;;;;;;;4937950;29;20602;-71
2021/12/25 15:31:43;;;;;;;0.10;0.10;;;;;;;;;;4952956;29;20245;-71
2021/12/25 15:34:13;;;;;;;0.10;0.10;;;;;;;;;;4954557;28;20234;-71
2021/12/25 15:36:45;;;;;;;0.20;0.20;;;;;;;;;;4936330;28;20233;-71
2021/12/25 15:39:17;;;;;;;0.00;0.00;;;;;;;;;;4942916;29;20199;-71
2021/12/25 15:41:46;;;;;;;0.10;0.10;;;;;;;;;;4951357;28;20273;-72
2021/12/25 15:44:15;;;;;;;0.10;0.10;;;;;;;;;;4945853;28;20206;-71
2021/12/25 15:46:45;;;;;;;0.10;0.10;;;;;;;;;;4936629;28;20233;-70
2021/12/25 15:49:14;;;;;;;0.10;0.10;;;;;;;;;;4950019;29;20661;-70
2021/12/25 15:51:50;;;;;;;0.10;0.10;;;;;;;;;;4939022;28;20227;-71
2021/12/25 15:54:19;;;;;;;0.10;0.10;;;;;;;;;;4955533;28;20204;-71
2021/12/25 15:56:48;;;;;;;0.10;0.10;;;;;;;;;;4938333;29;20289;-71
2021/12/25 15:59:16;;;;;;;0.10;0.10;;;;;;;;;;4953145;28;20237;-71
2021/12/25 16:01:46;;;;;;;0.10;0.10;;;;;;;;;;4951960;28;20233;-72
2021/12/25 16:04:14;;;;;;;0.10;0.10;;;;;;;;;;4952778;28;20214;-71